KAAT

Alturas Municipal Airport

Alturas, California, USA
METAR KAAT 242355Z AUTO 21010KT 10SM CLR 21/M04 A3011 RMK AO2 SLP179 6//// T02111039 56012
Observed Flight Rules
Apr-24 @ 23:55 UTC (54 minutes ago) Visual Flight Rules
Wind Visibility Clouds
210° at 10 knots 10 miles
  • Clear skies
Temperatures Readings
Current 21°C / 70°F
Dewpoint -4°C / 25°F
Humidity 18%
Altimeter 30.11" Hg
Pressure 1017.9 hPa
Elevation 1331
METAR KAAT 242355Z AUTO 21010KT 10SM CLR 21/M04 A3011 RMK AO2 SLP179 6//// T02111039 56012
Observed Flight Rules
Apr-24 @ 23:55 UTC
(54 minutes ago)
VFR
Wind Visibility
210° at 10 knots 10 miles
Clouds
  • Clear skies
Temperature Dewpoint
21°C / 70°F -4°C / 25°F
Humidity Altimeter Pressure
18% 30.11" Hg 1017.9 hPa